sensor_id;sensor_type;location;lat;lon;timestamp;pressure;altitude;pressure_sealevel;temperature
65569;BMP180;52211;50.154;8.682;2023-04-01T00:01:27;98304.00;;;15.70
65569;BMP180;52211;50.154;8.682;2023-04-01T00:03:54;98299.00;;;15.70
65569;BMP180;52211;50.154;8.682;2023-04-01T00:06:21;98288.00;;;15.60
65569;BMP180;52211;50.154;8.682;2023-04-01T00:08:50;98294.00;;;15.60
65569;BMP180;52211;50.154;8.682;2023-04-01T00:11:17;98280.00;;;15.60
65569;BMP180;52211;50.154;8.682;2023-04-01T00:13:49;98301.00;;;15.60
65569;BMP180;52211;50.154;8.682;2023-04-01T00:16:16;98281.00;;;15.60
65569;BMP180;52211;50.154;8.682;2023-04-01T00:18:49;98292.00;;;15.60
65569;BMP180;52211;50.154;8.682;2023-04-01T00:21:19;98290.00;;;15.60
65569;BMP180;52211;50.154;8.682;2023-04-01T00:23:48;98291.00;;;15.60
65569;BMP180;52211;50.154;8.682;2023-04-01T00:26:18;98280.00;;;15.60
65569;BMP180;52211;50.154;8.682;2023-04-01T00:28:50;98284.00;;;15.60
65569;BMP180;52211;50.154;8.682;2023-04-01T00:31:17;98285.00;;;15.70
65569;BMP180;52211;50.154;8.682;2023-04-01T00:33:44;98289.00;;;15.60
65569;BMP180;52211;50.154;8.682;2023-04-01T00:36:20;98279.00;;;15.60
65569;BMP180;52211;50.154;8.682;2023-04-01T00:38:48;98278.00;;;15.60
65569;BMP180;52211;50.154;8.682;2023-04-01T00:41:20;98275.00;;;15.60
65569;BMP180;52211;50.154;8.682;2023-04-01T00:43:51;98287.00;;;15.60
65569;BMP180;52211;50.154;8.682;2023-04-01T00:46:22;98289.00;;;15.60
65569;BMP180;52211;50.154;8.682;2023-04-01T00:48:55;98278.00;;;15.60
65569;BMP180;52211;50.154;8.682;2023-04-01T00:51:30;98282.00;;;15.50
65569;BMP180;52211;50.154;8.682;2023-04-01T00:54:00;98272.00;;;15.60
65569;BMP180;52211;50.154;8.682;2023-04-01T00:57:21;98273.00;;;15.50
65569;BMP180;52211;50.154;8.682;2023-04-01T00:59:54;98290.00;;;15.50
65569;BMP180;52211;50.154;8.682;2023-04-01T01:02:22;98279.00;;;15.50
65569;BMP180;52211;50.154;8.682;2023-04-01T01:04:50;98286.00;;;15.50
65569;BMP180;52211;50.154;8.682;2023-04-01T01:07:42;98282.00;;;15.50
65569;BMP180;52211;50.154;8.682;2023-04-01T01:10:20;98282.00;;;15.50
65569;BMP180;52211;50.154;8.682;2023-04-01T01:16:24;98275.00;;;15.50
65569;BMP180;52211;50.154;8.682;2023-04-01T01:18:58;98280.00;;;15.50
65569;BMP180;52211;50.154;8.682;2023-04-01T01:25:47;98273.00;;;15.50
65569;BMP180;52211;50.154;8.682;2023-04-01T01:28:51;98287.00;;;15.50
65569;BMP180;52211;50.154;8.682;2023-04-01T01:31:37;98292.00;;;15.50
65569;BMP180;52211;50.154;8.682;2023-04-01T01:37:14;98303.00;;;15.50
65569;BMP180;52211;50.154;8.682;2023-04-01T01:39:51;98290.00;;;15.50
65569;BMP180;52211;50.154;8.682;2023-04-01T01:42:28;98294.00;;;15.50
65569;BMP180;52211;50.154;8.682;2023-04-01T01:45:00;98296.00;;;15.50
65569;BMP180;52211;50.154;8.682;2023-04-01T01:47:29;98305.00;;;15.60
65569;BMP180;52211;50.154;8.682;2023-04-01T01:50:00;98301.00;;;15.60
65569;BMP180;52211;50.154;8.682;2023-04-01T01:52:30;98297.00;;;15.60
65569;BMP180;52211;50.154;8.682;2023-04-01T01:54:58;98297.00;;;15.60
65569;BMP180;52211;50.154;8.682;2023-04-01T01:57:36;98295.00;;;15.60
65569;BMP180;52211;50.154;8.682;2023-04-01T02:00:13;98286.00;;;15.60
65569;BMP180;52211;50.154;8.682;2023-04-01T02:02:46;98292.00;;;15.70
65569;BMP180;52211;50.154;8.682;2023-04-01T02:05:21;98296.00;;;15.70
65569;BMP180;52211;50.154;8.682;2023-04-01T02:08:08;98291.00;;;15.60
65569;BMP180;52211;50.154;8.682;2023-04-01T02:10:49;98285.00;;;15.60
65569;BMP180;52211;50.154;8.682;2023-04-01T02:14:18;98284.00;;;15.60
65569;BMP180;52211;50.154;8.682;2023-04-01T02:16:40;98290.00;;;15.60
65569;BMP180;52211;50.154;8.682;2023-04-01T02:19:15;98281.00;;;15.60
65569;BMP180;52211;50.154;8.682;2023-04-01T02:21:57;98294.00;;;15.60
65569;BMP180;52211;50.154;8.682;2023-04-01T02:24:33;98284.00;;;15.60
65569;BMP180;52211;50.154;8.682;2023-04-01T02:27:04;98284.00;;;15.60
65569;BMP180;52211;50.154;8.682;2023-04-01T02:29:36;98286.00;;;15.60
65569;BMP180;52211;50.154;8.682;2023-04-01T02:32:09;98282.00;;;15.60
65569;BMP180;52211;50.154;8.682;2023-04-01T02:34:37;98278.00;;;15.60
65569;BMP180;52211;50.154;8.682;2023-04-01T02:37:07;98285.00;;;15.60
65569;BMP180;52211;50.154;8.682;2023-04-01T02:39:34;98284.00;;;15.60
65569;BMP180;52211;50.154;8.682;2023-04-01T02:42:04;98282.00;;;15.60
65569;BMP180;52211;50.154;8.682;2023-04-01T02:44:36;98269.00;;;15.60
65569;BMP180;52211;50.154;8.682;2023-04-01T02:47:03;98279.00;;;15.60
65569;BMP180;52211;50.154;8.682;2023-04-01T02:49:32;98274.00;;;15.60
65569;BMP180;52211;50.154;8.682;2023-04-01T02:52:04;98266.00;;;15.60
65569;BMP180;52211;50.154;8.682;2023-04-01T02:54:31;98259.00;;;15.60
65569;BMP180;52211;50.154;8.682;2023-04-01T02:56:58;98262.00;;;15.60
65569;BMP180;52211;50.154;8.682;2023-04-01T02:59:27;98273.00;;;15.60
65569;BMP180;52211;50.154;8.682;2023-04-01T03:01:54;98265.00;;;15.60
65569;BMP180;52211;50.154;8.682;2023-04-01T03:04:24;98266.00;;;15.50
65569;BMP180;52211;50.154;8.682;2023-04-01T03:06:51;98270.00;;;15.50
65569;BMP180;52211;50.154;8.682;2023-04-01T03:09:20;98273.00;;;15.50
65569;BMP180;52211;50.154;8.682;2023-04-01T03:11:51;98269.00;;;15.50
65569;BMP180;52211;50.154;8.682;2023-04-01T03:14:23;98262.00;;;15.50
65569;BMP180;52211;50.154;8.682;2023-04-01T03:16:52;98266.00;;;15.50
65569;BMP180;52211;50.154;8.682;2023-04-01T03:19:22;98274.00;;;15.50
65569;BMP180;52211;50.154;8.682;2023-04-01T03:21:51;98265.00;;;15.50
65569;BMP180;52211;50.154;8.682;2023-04-01T03:24:18;98275.00;;;15.50
65569;BMP180;52211;50.154;8.682;2023-04-01T03:26:49;98296.00;;;15.40
65569;BMP180;52211;50.154;8.682;2023-04-01T03:29:25;98270.00;;;15.40
65569;BMP180;52211;50.154;8.682;2023-04-01T03:31:55;98265.00;;;15.40
65569;BMP180;52211;50.154;8.682;2023-04-01T03:34:25;98262.00;;;15.30
65569;BMP180;52211;50.154;8.682;2023-04-01T03:36:54;98275.00;;;15.30
65569;BMP180;52211;50.154;8.682;2023-04-01T03:39:26;98283.00;;;15.30
65569;BMP180;52211;50.154;8.682;2023-04-01T03:41:54;98265.00;;;15.30
65569;BMP180;52211;50.154;8.682;2023-04-01T03:44:23;98275.00;;;15.20
65569;BMP180;52211;50.154;8.682;2023-04-01T03:46:52;98259.00;;;15.20
65569;BMP180;52211;50.154;8.682;2023-04-01T03:49:22;98268.00;;;15.20
65569;BMP180;52211;50.154;8.682;2023-04-01T03:51:51;98266.00;;;15.10
65569;BMP180;52211;50.154;8.682;2023-04-01T03:54:19;98270.00;;;15.10
65569;BMP180;52211;50.154;8.682;2023-04-01T03:56:47;98273.00;;;15.10
65569;BMP180;52211;50.154;8.682;2023-04-01T03:59:14;98269.00;;;15.10
65569;BMP180;52211;50.154;8.682;2023-04-01T04:01:48;98261.00;;;15.10
65569;BMP180;52211;50.154;8.682;2023-04-01T04:04:20;98269.00;;;15.10
65569;BMP180;52211;50.154;8.682;2023-04-01T04:06:49;98281.00;;;15.10
65569;BMP180;52211;50.154;8.682;2023-04-01T04:09:21;98267.00;;;15.10
65569;BMP180;52211;50.154;8.682;2023-04-01T04:11:53;98262.00;;;15.10
65569;BMP180;52211;50.154;8.682;2023-04-01T04:14:20;98262.00;;;15.10
65569;BMP180;52211;50.154;8.682;2023-04-01T04:16:50;98264.00;;;15.10
65569;BMP180;52211;50.154;8.682;2023-04-01T04:19:23;98257.00;;;15.10
65569;BMP180;52211;50.154;8.682;2023-04-01T04:21:51;98256.00;;;15.10
65569;BMP180;52211;50.154;8.682;2023-04-01T04:24:20;98260.00;;;15.10
65569;BMP180;52211;50.154;8.682;2023-04-01T04:27:09;98262.00;;;15.00
65569;BMP180;52211;50.154;8.682;2023-04-01T04:29:52;98258.00;;;15.00
65569;BMP180;52211;50.154;8.682;2023-04-01T04:32:23;98267.00;;;15.00
65569;BMP180;52211;50.154;8.682;2023-04-01T04:34:53;98260.00;;;15.00
65569;BMP180;52211;50.154;8.682;2023-04-01T04:37:22;98257.00;;;15.00
65569;BMP180;52211;50.154;8.682;2023-04-01T04:39:51;98258.00;;;15.00
65569;BMP180;52211;50.154;8.682;2023-04-01T04:42:19;98255.00;;;15.00
65569;BMP180;52211;50.154;8.682;2023-04-01T04:44:46;98263.00;;;15.00
65569;BMP180;52211;50.154;8.682;2023-04-01T04:47:13;98254.00;;;15.00
65569;BMP180;52211;50.154;8.682;2023-04-01T04:49:42;98263.00;;;15.00
65569;BMP180;52211;50.154;8.682;2023-04-01T04:52:09;98262.00;;;15.00
65569;BMP180;52211;50.154;8.682;2023-04-01T04:54:36;98253.00;;;15.00
65569;BMP180;52211;50.154;8.682;2023-04-01T04:57:04;98259.00;;;15.00
65569;BMP180;52211;50.154;8.682;2023-04-01T04:59:37;98263.00;;;15.00
65569;BMP180;52211;50.154;8.682;2023-04-01T05:02:12;98262.00;;;14.90
65569;BMP180;52211;50.154;8.682;2023-04-01T05:04:41;98262.00;;;14.90
65569;BMP180;52211;50.154;8.682;2023-04-01T05:07:10;98251.00;;;14.90
65569;BMP180;52211;50.154;8.682;2023-04-01T05:09:38;98256.00;;;14.90
65569;BMP180;52211;50.154;8.682;2023-04-01T05:12:08;98267.00;;;14.90
65569;BMP180;52211;50.154;8.682;2023-04-01T05:15:10;98259.00;;;14.80
65569;BMP180;52211;50.154;8.682;2023-04-01T05:17:39;98255.00;;;14.80
65569;BMP180;52211;50.154;8.682;2023-04-01T05:20:11;98249.00;;;14.80
65569;BMP180;52211;50.154;8.682;2023-04-01T05:22:43;98258.00;;;14.80
65569;BMP180;52211;50.154;8.682;2023-04-01T05:25:13;98251.00;;;14.80
65569;BMP180;52211;50.154;8.682;2023-04-01T05:27:42;98245.00;;;14.80
65569;BMP180;52211;50.154;8.682;2023-04-01T05:30:09;98252.00;;;14.80
65569;BMP180;52211;50.154;8.682;2023-04-01T05:32:46;98251.00;;;14.80
65569;BMP180;52211;50.154;8.682;2023-04-01T05:35:19;98258.00;;;14.80
65569;BMP180;52211;50.154;8.682;2023-04-01T05:37:53;98248.00;;;14.80
65569;BMP180;52211;50.154;8.682;2023-04-01T05:40:20;98263.00;;;14.80
65569;BMP180;52211;50.154;8.682;2023-04-01T05:42:47;98258.00;;;14.80
65569;BMP180;52211;50.154;8.682;2023-04-01T05:45:15;98248.00;;;14.80
65569;BMP180;52211;50.154;8.682;2023-04-01T05:47:51;98250.00;;;14.80
65569;BMP180;52211;50.154;8.682;2023-04-01T05:50:24;98253.00;;;14.70
65569;BMP180;52211;50.154;8.682;2023-04-01T05:52:54;98252.00;;;14.70
65569;BMP180;52211;50.154;8.682;2023-04-01T05:55:25;98255.00;;;14.70
65569;BMP180;52211;50.154;8.682;2023-04-01T05:57:52;98260.00;;;14.70
65569;BMP180;52211;50.154;8.682;2023-04-01T06:00:24;98258.00;;;14.70
65569;BMP180;52211;50.154;8.682;2023-04-01T06:02:51;98265.00;;;14.70
65569;BMP180;52211;50.154;8.682;2023-04-01T06:05:25;98251.00;;;14.70
65569;BMP180;52211;50.154;8.682;2023-04-01T06:08:00;98259.00;;;14.70
65569;BMP180;52211;50.154;8.682;2023-04-01T06:11:13;98259.00;;;14.60
65569;BMP180;52211;50.154;8.682;2023-04-01T06:14:38;98258.00;;;14.60
65569;BMP180;52211;50.154;8.682;2023-04-01T06:20:43;98270.00;;;14.50
65569;BMP180;52211;50.154;8.682;2023-04-01T06:23:32;98264.00;;;14.50
65569;BMP180;52211;50.154;8.682;2023-04-01T06:38:28;98274.00;;;14.50
65569;BMP180;52211;50.154;8.682;2023-04-01T06:46:44;98278.00;;;14.50
65569;BMP180;52211;50.154;8.682;2023-04-01T06:50:01;98267.00;;;14.50
65569;BMP180;52211;50.154;8.682;2023-04-01T06:56:46;98269.00;;;14.60
65569;BMP180;52211;50.154;8.682;2023-04-01T06:59:28;98270.00;;;14.60
65569;BMP180;52211;50.154;8.682;2023-04-01T07:04:53;98267.00;;;14.70
65569;BMP180;52211;50.154;8.682;2023-04-01T07:07:45;98281.00;;;14.70
65569;BMP180;52211;50.154;8.682;2023-04-01T07:13:54;98291.00;;;14.70
65569;BMP180;52211;50.154;8.682;2023-04-01T07:17:06;98285.00;;;14.70
65569;BMP180;52211;50.154;8.682;2023-04-01T07:20:20;98282.00;;;14.70
65569;BMP180;52211;50.154;8.682;2023-04-01T07:22:59;98284.00;;;14.70
65569;BMP180;52211;50.154;8.682;2023-04-01T07:25:47;98290.00;;;14.70
65569;BMP180;52211;50.154;8.682;2023-04-01T07:28:36;98284.00;;;14.70
65569;BMP180;52211;50.154;8.682;2023-04-01T07:35:36;98298.00;;;14.70
65569;BMP180;52211;50.154;8.682;2023-04-01T07:41:30;98306.00;;;14.70
65569;BMP180;52211;50.154;8.682;2023-04-01T07:50:59;98304.00;;;14.70
65569;BMP180;52211;50.154;8.682;2023-04-01T07:53:58;98307.00;;;14.80
65569;BMP180;52211;50.154;8.682;2023-04-01T07:56:48;98309.00;;;14.80
65569;BMP180;52211;50.154;8.682;2023-04-01T07:59:40;98312.00;;;14.80
65569;BMP180;52211;50.154;8.682;2023-04-01T08:05:45;98310.00;;;14.90
65569;BMP180;52211;50.154;8.682;2023-04-01T08:12:13;98307.00;;;15.00
65569;BMP180;52211;50.154;8.682;2023-04-01T08:21:47;98328.00;;;15.10
65569;BMP180;52211;50.154;8.682;2023-04-01T08:24:43;98319.00;;;15.10
65569;BMP180;52211;50.154;8.682;2023-04-01T08:27:31;98335.00;;;15.20
65569;BMP180;52211;50.154;8.682;2023-04-01T08:30:19;98321.00;;;15.20
65569;BMP180;52211;50.154;8.682;2023-04-01T08:32:57;98332.00;;;15.20
65569;BMP180;52211;50.154;8.682;2023-04-01T08:35:40;98321.00;;;15.30
65569;BMP180;52211;50.154;8.682;2023-04-01T08:38:40;98329.00;;;15.30
65569;BMP180;52211;50.154;8.682;2023-04-01T08:56:46;98328.00;;;15.50
65569;BMP180;52211;50.154;8.682;2023-04-01T09:11:12;98340.00;;;15.70
65569;BMP180;52211;50.154;8.682;2023-04-01T09:30:59;98346.00;;;15.70
65569;BMP180;52211;50.154;8.682;2023-04-01T09:37:41;98347.00;;;15.70
65569;BMP180;52211;50.154;8.682;2023-04-01T09:50:29;98352.00;;;15.90
65569;BMP180;52211;50.154;8.682;2023-04-01T09:53:32;98364.00;;;15.90
65569;BMP180;52211;50.154;8.682;2023-04-01T09:59:47;98361.00;;;15.90
65569;BMP180;52211;50.154;8.682;2023-04-01T10:15:00;98363.00;;;15.90
65569;BMP180;52211;50.154;8.682;2023-04-01T10:53:57;98372.00;;;15.80
65569;BMP180;52211;50.154;8.682;2023-04-01T11:07:58;98381.00;;;15.90
65569;BMP180;52211;50.154;8.682;2023-04-01T11:24:04;98387.00;;;16.10
65569;BMP180;52211;50.154;8.682;2023-04-01T11:27:02;98385.00;;;16.10
65569;BMP180;52211;50.154;8.682;2023-04-01T11:32:53;98391.00;;;16.20
65569;BMP180;52211;50.154;8.682;2023-04-01T11:45:25;98397.00;;;16.40
65569;BMP180;52211;50.154;8.682;2023-04-01T11:54:31;98396.00;;;16.40
65569;BMP180;52211;50.154;8.682;2023-04-01T12:03:43;98398.00;;;16.50
65569;BMP180;52211;50.154;8.682;2023-04-01T12:07:06;98403.00;;;16.50
65569;BMP180;52211;50.154;8.682;2023-04-01T12:10:20;98410.00;;;16.50
65569;BMP180;52211;50.154;8.682;2023-04-01T12:13:04;98415.00;;;16.40
65569;BMP180;52211;50.154;8.682;2023-04-01T12:19:11;98421.00;;;16.30
65569;BMP180;52211;50.154;8.682;2023-04-01T12:24:47;98417.00;;;16.10
65569;BMP180;52211;50.154;8.682;2023-04-01T12:27:42;98414.00;;;16.00
65569;BMP180;52211;50.154;8.682;2023-04-01T12:36:40;98439.00;;;15.90
65569;BMP180;52211;50.154;8.682;2023-04-01T12:45:27;98419.00;;;15.80
65569;BMP180;52211;50.154;8.682;2023-04-01T12:51:09;98438.00;;;15.80
65569;BMP180;52211;50.154;8.682;2023-04-01T12:57:01;98435.00;;;15.70
65569;BMP180;52211;50.154;8.682;2023-04-01T13:00:25;98444.00;;;15.80
65569;BMP180;52211;50.154;8.682;2023-04-01T13:17:35;98447.00;;;16.00
65569;BMP180;52211;50.154;8.682;2023-04-01T13:26:29;98453.00;;;16.10
65569;BMP180;52211;50.154;8.682;2023-04-01T13:29:23;98460.00;;;16.20
65569;BMP180;52211;50.154;8.682;2023-04-01T13:35:46;98452.00;;;16.20
65569;BMP180;52211;50.154;8.682;2023-04-01T13:44:47;98464.00;;;16.40
65569;BMP180;52211;50.154;8.682;2023-04-01T13:47:56;98466.00;;;16.50
65569;BMP180;52211;50.154;8.682;2023-04-01T13:53:19;98457.00;;;16.80
65569;BMP180;52211;50.154;8.682;2023-04-01T14:04:56;98462.00;;;17.70
65569;BMP180;52211;50.154;8.682;2023-04-01T14:08:11;98462.00;;;17.70
65569;BMP180;52211;50.154;8.682;2023-04-01T14:11:13;98465.00;;;17.70
65569;BMP180;52211;50.154;8.682;2023-04-01T14:22:58;98476.00;;;17.80
65569;BMP180;52211;50.154;8.682;2023-04-01T14:26:07;98474.00;;;17.90
65569;BMP180;52211;50.154;8.682;2023-04-01T14:29:27;98477.00;;;17.90
65569;BMP180;52211;50.154;8.682;2023-04-01T14:32:16;98478.00;;;18.00
65569;BMP180;52211;50.154;8.682;2023-04-01T14:49:42;98488.00;;;18.50
65569;BMP180;52211;50.154;8.682;2023-04-01T14:52:27;98486.00;;;18.60
65569;BMP180;52211;50.154;8.682;2023-04-01T14:54:58;98489.00;;;18.60
65569;BMP180;52211;50.154;8.682;2023-04-01T14:57:33;98491.00;;;18.60
65569;BMP180;52211;50.154;8.682;2023-04-01T15:00:14;98498.00;;;18.50
65569;BMP180;52211;50.154;8.682;2023-04-01T15:03:01;98501.00;;;18.40
65569;BMP180;52211;50.154;8.682;2023-04-01T15:08:32;98492.00;;;18.20
65569;BMP180;52211;50.154;8.682;2023-04-01T15:14:22;98497.00;;;18.00
65569;BMP180;52211;50.154;8.682;2023-04-01T15:23:37;98508.00;;;17.90
65569;BMP180;52211;50.154;8.682;2023-04-01T15:26:15;98514.00;;;17.90
65569;BMP180;52211;50.154;8.682;2023-04-01T15:48:47;98554.00;;;17.50
65569;BMP180;52211;50.154;8.682;2023-04-01T15:54:32;98545.00;;;17.40
65569;BMP180;52211;50.154;8.682;2023-04-01T15:57:34;98557.00;;;17.40
65569;BMP180;52211;50.154;8.682;2023-04-01T16:07:12;98563.00;;;17.30
65569;BMP180;52211;50.154;8.682;2023-04-01T16:15:52;98577.00;;;17.20
65569;BMP180;52211;50.154;8.682;2023-04-01T16:21:48;98577.00;;;17.10
65569;BMP180;52211;50.154;8.682;2023-04-01T16:27:53;98580.00;;;17.10
65569;BMP180;52211;50.154;8.682;2023-04-01T16:30:48;98578.00;;;17.20
65569;BMP180;52211;50.154;8.682;2023-04-01T16:33:52;98582.00;;;17.10
65569;BMP180;52211;50.154;8.682;2023-04-01T16:39:27;98592.00;;;17.20
65569;BMP180;52211;50.154;8.682;2023-04-01T16:42:16;98601.00;;;17.20
65569;BMP180;52211;50.154;8.682;2023-04-01T16:45:02;98594.00;;;17.20
65569;BMP180;52211;50.154;8.682;2023-04-01T16:47:54;98609.00;;;17.20
65569;BMP180;52211;50.154;8.682;2023-04-01T16:50:30;98608.00;;;17.20
65569;BMP180;52211;50.154;8.682;2023-04-01T16:53:35;98612.00;;;17.20
65569;BMP180;52211;50.154;8.682;2023-04-01T17:02:20;98624.00;;;17.10
65569;BMP180;52211;50.154;8.682;2023-04-01T17:05:49;98627.00;;;17.00
65569;BMP180;52211;50.154;8.682;2023-04-01T17:08:34;98623.00;;;17.00
65569;BMP180;52211;50.154;8.682;2023-04-01T17:11:23;98627.00;;;17.00
65569;BMP180;52211;50.154;8.682;2023-04-01T17:14:22;98631.00;;;16.90
65569;BMP180;52211;50.154;8.682;2023-04-01T17:25:11;98645.00;;;16.80
65569;BMP180;52211;50.154;8.682;2023-04-01T17:33:31;98649.00;;;16.70
65569;BMP180;52211;50.154;8.682;2023-04-01T17:42:04;98666.00;;;16.50
65569;BMP180;52211;50.154;8.682;2023-04-01T17:47:44;98675.00;;;16.50
65569;BMP180;52211;50.154;8.682;2023-04-01T17:56:34;98694.00;;;16.40
65569;BMP180;52211;50.154;8.682;2023-04-01T17:59:26;98698.00;;;16.40
65569;BMP180;52211;50.154;8.682;2023-04-01T18:14:17;98724.00;;;16.40
65569;BMP180;52211;50.154;8.682;2023-04-01T18:25:38;98745.00;;;16.40
65569;BMP180;52211;50.154;8.682;2023-04-01T18:31:20;98763.00;;;16.30
65569;BMP180;52211;50.154;8.682;2023-04-01T18:33:55;98763.00;;;16.30
65569;BMP180;52211;50.154;8.682;2023-04-01T18:36:47;98772.00;;;16.30
65569;BMP180;52211;50.154;8.682;2023-04-01T18:39:39;98779.00;;;16.20
65569;BMP180;52211;50.154;8.682;2023-04-01T18:43:12;98785.00;;;16.20
65569;BMP180;52211;50.154;8.682;2023-04-01T18:46:01;98788.00;;;16.20
65569;BMP180;52211;50.154;8.682;2023-04-01T18:48:51;98799.00;;;16.20
65569;BMP180;52211;50.154;8.682;2023-04-01T18:51:39;98792.00;;;16.20
65569;BMP180;52211;50.154;8.682;2023-04-01T18:54:15;98796.00;;;16.20
65569;BMP180;52211;50.154;8.682;2023-04-01T18:56:48;98804.00;;;16.20
65569;BMP180;52211;50.154;8.682;2023-04-01T19:00:08;98813.00;;;16.20
65569;BMP180;52211;50.154;8.682;2023-04-01T19:02:40;98809.00;;;16.20
65569;BMP180;52211;50.154;8.682;2023-04-01T19:05:20;98818.00;;;16.10
65569;BMP180;52211;50.154;8.682;2023-04-01T19:07:54;98826.00;;;16.20
65569;BMP180;52211;50.154;8.682;2023-04-01T19:13:59;98827.00;;;16.10
65569;BMP180;52211;50.154;8.682;2023-04-01T19:16:50;98837.00;;;16.10
65569;BMP180;52211;50.154;8.682;2023-04-01T19:19:56;98837.00;;;16.10
65569;BMP180;52211;50.154;8.682;2023-04-01T19:25:55;98840.00;;;16.10
65569;BMP180;52211;50.154;8.682;2023-04-01T19:37:59;98844.00;;;16.00
65569;BMP180;52211;50.154;8.682;2023-04-01T19:40:51;98851.00;;;16.00
65569;BMP180;52211;50.154;8.682;2023-04-01T19:46:46;98858.00;;;16.00
65569;BMP180;52211;50.154;8.682;2023-04-01T20:00:51;98869.00;;;16.00
65569;BMP180;52211;50.154;8.682;2023-04-01T20:11:59;98878.00;;;16.00
65569;BMP180;52211;50.154;8.682;2023-04-01T20:20:02;98901.00;;;16.00
65569;BMP180;52211;50.154;8.682;2023-04-01T20:25:23;98912.00;;;15.90
65569;BMP180;52211;50.154;8.682;2023-04-01T20:31:16;98921.00;;;15.80
65569;BMP180;52211;50.154;8.682;2023-04-01T20:46:00;98942.00;;;15.80
65569;BMP180;52211;50.154;8.682;2023-04-01T20:51:17;98955.00;;;15.80
65569;BMP180;52211;50.154;8.682;2023-04-01T20:57:11;98952.00;;;15.80
65569;BMP180;52211;50.154;8.682;2023-04-01T21:08:59;98961.00;;;15.70
65569;BMP180;52211;50.154;8.682;2023-04-01T21:12:24;98967.00;;;15.70
65569;BMP180;52211;50.154;8.682;2023-04-01T21:26:52;98982.00;;;15.60
65569;BMP180;52211;50.154;8.682;2023-04-01T21:38:21;99004.00;;;15.50
65569;BMP180;52211;50.154;8.682;2023-04-01T21:41:17;99005.00;;;15.50
65569;BMP180;52211;50.154;8.682;2023-04-01T21:47:05;99012.00;;;15.60
65569;BMP180;52211;50.154;8.682;2023-04-01T21:50:18;99014.00;;;15.50
65569;BMP180;52211;50.154;8.682;2023-04-01T21:56:43;99027.00;;;15.60
65569;BMP180;52211;50.154;8.682;2023-04-01T22:11:17;99033.00;;;15.60
65569;BMP180;52211;50.154;8.682;2023-04-01T22:14:25;99027.00;;;15.60
65569;BMP180;52211;50.154;8.682;2023-04-01T22:20:25;99040.00;;;15.60
65569;BMP180;52211;50.154;8.682;2023-04-01T22:23:47;99047.00;;;15.60
65569;BMP180;52211;50.154;8.682;2023-04-01T22:26:44;99052.00;;;15.60
65569;BMP180;52211;50.154;8.682;2023-04-01T22:32:20;99055.00;;;15.70
65569;BMP180;52211;50.154;8.682;2023-04-01T22:41:05;99062.00;;;15.70
65569;BMP180;52211;50.154;8.682;2023-04-01T22:43:44;99063.00;;;15.70
65569;BMP180;52211;50.154;8.682;2023-04-01T22:46:47;99070.00;;;15.60
65569;BMP180;52211;50.154;8.682;2023-04-01T22:49:25;99072.00;;;15.60
65569;BMP180;52211;50.154;8.682;2023-04-01T22:54:34;99073.00;;;15.60
65569;BMP180;52211;50.154;8.682;2023-04-01T22:57:14;99081.00;;;15.60
65569;BMP180;52211;50.154;8.682;2023-04-01T22:59:54;99084.00;;;15.60
65569;BMP180;52211;50.154;8.682;2023-04-01T23:02:31;99090.00;;;15.60
65569;BMP180;52211;50.154;8.682;2023-04-01T23:05:05;99087.00;;;15.60
65569;BMP180;52211;50.154;8.682;2023-04-01T23:13:19;99095.00;;;15.60
65569;BMP180;52211;50.154;8.682;2023-04-01T23:15:51;99093.00;;;15.60
65569;BMP180;52211;50.154;8.682;2023-04-01T23:18:56;99097.00;;;15.60
65569;BMP180;52211;50.154;8.682;2023-04-01T23:21:35;99107.00;;;15.60
65569;BMP180;52211;50.154;8.682;2023-04-01T23:24:32;99108.00;;;15.60
65569;BMP180;52211;50.154;8.682;2023-04-01T23:27:20;99108.00;;;15.60
65569;BMP180;52211;50.154;8.682;2023-04-01T23:29:47;99113.00;;;15.60
65569;BMP180;52211;50.154;8.682;2023-04-01T23:32:33;99109.00;;;15.60
65569;BMP180;52211;50.154;8.682;2023-04-01T23:35:18;99110.00;;;15.60
65569;BMP180;52211;50.154;8.682;2023-04-01T23:37:47;99119.00;;;15.60
65569;BMP180;52211;50.154;8.682;2023-04-01T23:40:19;99122.00;;;15.60
65569;BMP180;52211;50.154;8.682;2023-04-01T23:42:51;99117.00;;;15.60
65569;BMP180;52211;50.154;8.682;2023-04-01T23:45:18;99127.00;;;15.60
65569;BMP180;52211;50.154;8.682;2023-04-01T23:47:48;99119.00;;;15.60
65569;BMP180;52211;50.154;8.682;2023-04-01T23:50:23;99126.00;;;15.60
65569;BMP180;52211;50.154;8.682;2023-04-01T23:53:15;99126.00;;;15.60
65569;BMP180;52211;50.154;8.682;2023-04-01T23:55:43;99133.00;;;15.60
65569;BMP180;52211;50.154;8.682;2023-04-01T23:58:22;99130.00;;;15.60
